Singac, New Jersey
Current Conditions -  °F | °C
As of 7:53 PM on Thursday 27 Nov 2014 (Local Time) from KCDW Reporting Station
Overcast Overcast  
Wind Chill: 30°   Ceiling: 3800
Heat Index: 34°   Visibility: 10mi
Dew Point: 25°   Wind: 5mph
Humidity: 70%   Direction: 310°NW
Pressure: 30.05"   Gusts: NA
Location:  40.8835°N, 74.2057°W
Report Text: KCDW 280053Z AUTO 31004KT 10SM OVC038 01/M04 A3005 RMK AO2 SLP184 T00111039 TSNO
Loading
Personal Weather Stations






























Interactive Weather Map New forecast layout! Learn more

10-Day Weather Forecast

Advertisements
Track Severe Weather on mobile